sensor_id;sensor_type;location;lat;lon;timestamp;temperature;humidity
6627;DHT22;3349;49.830;8.748;2023-06-01T00:01:49;14.20;72.40
6627;DHT22;3349;49.830;8.748;2023-06-01T00:04:16;14.20;73.20
6627;DHT22;3349;49.830;8.748;2023-06-01T00:06:43;14.10;73.70
6627;DHT22;3349;49.830;8.748;2023-06-01T00:09:10;14.10;73.80
6627;DHT22;3349;49.830;8.748;2023-06-01T00:11:38;14.10;73.70
6627;DHT22;3349;49.830;8.748;2023-06-01T00:14:05;13.90;75.00
6627;DHT22;3349;49.830;8.748;2023-06-01T00:16:31;13.90;74.90
6627;DHT22;3349;49.830;8.748;2023-06-01T00:18:59;13.80;75.50
6627;DHT22;3349;49.830;8.748;2023-06-01T00:21:27;13.70;75.90
6627;DHT22;3349;49.830;8.748;2023-06-01T00:23:54;13.60;76.90
6627;DHT22;3349;49.830;8.748;2023-06-01T00:26:21;13.50;78.20
6627;DHT22;3349;49.830;8.748;2023-06-01T00:28:49;13.50;77.60
6627;DHT22;3349;49.830;8.748;2023-06-01T00:31:15;13.50;77.60
6627;DHT22;3349;49.830;8.748;2023-06-01T00:33:42;13.50;77.90
6627;DHT22;3349;49.830;8.748;2023-06-01T00:36:09;13.40;78.80
6627;DHT22;3349;49.830;8.748;2023-06-01T00:38:36;13.30;79.80
6627;DHT22;3349;49.830;8.748;2023-06-01T00:41:03;13.20;79.70
6627;DHT22;3349;49.830;8.748;2023-06-01T00:43:29;13.10;80.60
6627;DHT22;3349;49.830;8.748;2023-06-01T00:45:58;13.20;80.40
6627;DHT22;3349;49.830;8.748;2023-06-01T00:48:25;13.20;80.70
6627;DHT22;3349;49.830;8.748;2023-06-01T00:50:52;13.20;80.20
6627;DHT22;3349;49.830;8.748;2023-06-01T00:53:19;13.20;80.00
6627;DHT22;3349;49.830;8.748;2023-06-01T00:55:46;13.20;80.30
6627;DHT22;3349;49.830;8.748;2023-06-01T00:58:14;13.10;80.20
6627;DHT22;3349;49.830;8.748;2023-06-01T01:00:41;13.00;81.00
6627;DHT22;3349;49.830;8.748;2023-06-01T01:03:09;12.90;81.40
6627;DHT22;3349;49.830;8.748;2023-06-01T01:05:39;12.90;81.40
6627;DHT22;3349;49.830;8.748;2023-06-01T01:08:12;13.00;81.50
6627;DHT22;3349;49.830;8.748;2023-06-01T01:10:43;13.00;80.70
6627;DHT22;3349;49.830;8.748;2023-06-01T01:13:18;13.00;80.60
6627;DHT22;3349;49.830;8.748;2023-06-01T01:15:53;13.00;81.20
6627;DHT22;3349;49.830;8.748;2023-06-01T01:18:27;12.90;80.20
6627;DHT22;3349;49.830;8.748;2023-06-01T01:21:00;12.90;80.40
6627;DHT22;3349;49.830;8.748;2023-06-01T01:23:43;12.70;80.90
6627;DHT22;3349;49.830;8.748;2023-06-01T01:26:23;12.60;81.10
6627;DHT22;3349;49.830;8.748;2023-06-01T01:28:54;12.60;81.10
6627;DHT22;3349;49.830;8.748;2023-06-01T01:31:24;12.50;81.90
6627;DHT22;3349;49.830;8.748;2023-06-01T01:33:54;12.50;83.10
6627;DHT22;3349;49.830;8.748;2023-06-01T01:36:22;12.60;82.40
6627;DHT22;3349;49.830;8.748;2023-06-01T01:38:50;12.50;82.80
6627;DHT22;3349;49.830;8.748;2023-06-01T01:41:16;12.60;83.60
6627;DHT22;3349;49.830;8.748;2023-06-01T01:43:44;12.60;82.40
6627;DHT22;3349;49.830;8.748;2023-06-01T01:46:22;12.40;83.80
6627;DHT22;3349;49.830;8.748;2023-06-01T01:48:55;12.40;84.60
6627;DHT22;3349;49.830;8.748;2023-06-01T01:51:27;12.40;83.80
6627;DHT22;3349;49.830;8.748;2023-06-01T01:53:56;12.40;83.80
6627;DHT22;3349;49.830;8.748;2023-06-01T01:56:24;12.30;85.40
6627;DHT22;3349;49.830;8.748;2023-06-01T01:58:52;12.30;85.10
6627;DHT22;3349;49.830;8.748;2023-06-01T02:01:20;12.30;85.10
6627;DHT22;3349;49.830;8.748;2023-06-01T02:03:57;12.40;85.90
6627;DHT22;3349;49.830;8.748;2023-06-01T02:06:25;12.40;85.90
6627;DHT22;3349;49.830;8.748;2023-06-01T02:08:51;12.40;85.40
6627;DHT22;3349;49.830;8.748;2023-06-01T02:11:18;12.40;85.00
6627;DHT22;3349;49.830;8.748;2023-06-01T02:13:46;12.40;85.00
6627;DHT22;3349;49.830;8.748;2023-06-01T02:16:12;12.40;84.60
6627;DHT22;3349;49.830;8.748;2023-06-01T02:18:40;12.40;85.70
6627;DHT22;3349;49.830;8.748;2023-06-01T02:21:11;12.30;86.00
6627;DHT22;3349;49.830;8.748;2023-06-01T02:23:38;12.30;86.20
6627;DHT22;3349;49.830;8.748;2023-06-01T02:26:05;12.30;85.50
6627;DHT22;3349;49.830;8.748;2023-06-01T02:28:31;12.30;85.20
6627;DHT22;3349;49.830;8.748;2023-06-01T02:30:58;12.10;85.80
6627;DHT22;3349;49.830;8.748;2023-06-01T02:33:25;12.00;87.00
6627;DHT22;3349;49.830;8.748;2023-06-01T02:35:53;12.00;87.80
6627;DHT22;3349;49.830;8.748;2023-06-01T02:38:20;12.00;87.90
6627;DHT22;3349;49.830;8.748;2023-06-01T02:40:46;12.10;88.10
6627;DHT22;3349;49.830;8.748;2023-06-01T02:43:13;12.10;88.00
6627;DHT22;3349;49.830;8.748;2023-06-01T02:45:40;12.10;87.90
6627;DHT22;3349;49.830;8.748;2023-06-01T02:48:06;12.10;88.20
6627;DHT22;3349;49.830;8.748;2023-06-01T02:50:33;12.00;88.20
6627;DHT22;3349;49.830;8.748;2023-06-01T02:53:01;12.00;88.40
6627;DHT22;3349;49.830;8.748;2023-06-01T02:55:28;12.00;88.10
6627;DHT22;3349;49.830;8.748;2023-06-01T02:57:55;12.00;87.60
6627;DHT22;3349;49.830;8.748;2023-06-01T03:00:21;11.90;88.10
6627;DHT22;3349;49.830;8.748;2023-06-01T03:02:48;11.80;88.70
6627;DHT22;3349;49.830;8.748;2023-06-01T03:05:15;11.70;89.40
6627;DHT22;3349;49.830;8.748;2023-06-01T03:07:43;11.60;89.70
6627;DHT22;3349;49.830;8.748;2023-06-01T03:10:12;11.50;89.80
6627;DHT22;3349;49.830;8.748;2023-06-01T03:12:39;11.60;90.10
6627;DHT22;3349;49.830;8.748;2023-06-01T03:15:27;11.50;90.10
6627;DHT22;3349;49.830;8.748;2023-06-01T03:17:54;11.60;90.10
6627;DHT22;3349;49.830;8.748;2023-06-01T03:20:20;11.50;90.40
6627;DHT22;3349;49.830;8.748;2023-06-01T03:22:48;11.60;90.40
6627;DHT22;3349;49.830;8.748;2023-06-01T03:25:16;11.70;90.40
6627;DHT22;3349;49.830;8.748;2023-06-01T03:27:43;11.70;90.40
6627;DHT22;3349;49.830;8.748;2023-06-01T03:30:10;11.70;90.10
6627;DHT22;3349;49.830;8.748;2023-06-01T03:32:37;11.70;90.10
6627;DHT22;3349;49.830;8.748;2023-06-01T03:35:05;11.50;90.10
6627;DHT22;3349;49.830;8.748;2023-06-01T03:37:33;11.50;90.10
6627;DHT22;3349;49.830;8.748;2023-06-01T03:40:00;11.40;91.00
6627;DHT22;3349;49.830;8.748;2023-06-01T03:42:28;11.30;91.20
6627;DHT22;3349;49.830;8.748;2023-06-01T03:44:55;11.30;91.20
6627;DHT22;3349;49.830;8.748;2023-06-01T03:47:22;11.40;91.20
6627;DHT22;3349;49.830;8.748;2023-06-01T03:49:48;11.30;91.10
6627;DHT22;3349;49.830;8.748;2023-06-01T03:52:15;11.30;91.10
6627;DHT22;3349;49.830;8.748;2023-06-01T03:54:43;11.30;91.20
6627;DHT22;3349;49.830;8.748;2023-06-01T03:57:10;11.30;91.70
6627;DHT22;3349;49.830;8.748;2023-06-01T03:59:38;11.30;91.20
6627;DHT22;3349;49.830;8.748;2023-06-01T04:02:05;11.40;91.20
6627;DHT22;3349;49.830;8.748;2023-06-01T04:04:35;11.50;91.30
6627;DHT22;3349;49.830;8.748;2023-06-01T04:07:02;11.60;91.40
6627;DHT22;3349;49.830;8.748;2023-06-01T04:09:29;11.70;91.10
6627;DHT22;3349;49.830;8.748;2023-06-01T04:11:56;11.70;90.50
6627;DHT22;3349;49.830;8.748;2023-06-01T04:14:22;11.60;90.10
6627;DHT22;3349;49.830;8.748;2023-06-01T04:16:50;11.60;90.20
6627;DHT22;3349;49.830;8.748;2023-06-01T04:19:17;11.50;90.30
6627;DHT22;3349;49.830;8.748;2023-06-01T04:21:44;11.50;90.50
6627;DHT22;3349;49.830;8.748;2023-06-01T04:24:11;11.50;90.50
6627;DHT22;3349;49.830;8.748;2023-06-01T04:26:37;11.50;91.20
6627;DHT22;3349;49.830;8.748;2023-06-01T04:29:05;11.60;91.20
6627;DHT22;3349;49.830;8.748;2023-06-01T04:31:37;11.80;91.70
6627;DHT22;3349;49.830;8.748;2023-06-01T04:34:05;11.90;91.40
6627;DHT22;3349;49.830;8.748;2023-06-01T04:36:33;12.00;91.50
6627;DHT22;3349;49.830;8.748;2023-06-01T04:39:04;12.20;91.50
6627;DHT22;3349;49.830;8.748;2023-06-01T04:41:33;12.30;91.00
6627;DHT22;3349;49.830;8.748;2023-06-01T04:44:01;12.50;90.80
6627;DHT22;3349;49.830;8.748;2023-06-01T04:46:31;12.60;89.90
6627;DHT22;3349;49.830;8.748;2023-06-01T04:48:58;12.80;89.70
6627;DHT22;3349;49.830;8.748;2023-06-01T04:51:27;13.00;88.30
6627;DHT22;3349;49.830;8.748;2023-06-01T04:53:56;13.00;88.00
6627;DHT22;3349;49.830;8.748;2023-06-01T04:56:25;13.10;87.30
6627;DHT22;3349;49.830;8.748;2023-06-01T04:58:53;13.30;86.20
6627;DHT22;3349;49.830;8.748;2023-06-01T05:01:21;13.40;85.30
6627;DHT22;3349;49.830;8.748;2023-06-01T05:03:51;13.60;84.00
6627;DHT22;3349;49.830;8.748;2023-06-01T05:06:19;13.60;83.10
6627;DHT22;3349;49.830;8.748;2023-06-01T05:08:47;13.70;82.20
6627;DHT22;3349;49.830;8.748;2023-06-01T05:11:14;13.80;82.40
6627;DHT22;3349;49.830;8.748;2023-06-01T05:13:41;13.90;81.40
6627;DHT22;3349;49.830;8.748;2023-06-01T05:16:09;14.00;80.70
6627;DHT22;3349;49.830;8.748;2023-06-01T05:18:36;14.10;79.70
6627;DHT22;3349;49.830;8.748;2023-06-01T05:21:03;14.20;78.40
6627;DHT22;3349;49.830;8.748;2023-06-01T05:23:30;14.20;78.30
6627;DHT22;3349;49.830;8.748;2023-06-01T05:25:59;14.20;78.20
6627;DHT22;3349;49.830;8.748;2023-06-01T05:28:28;14.30;78.40
6627;DHT22;3349;49.830;8.748;2023-06-01T05:30:55;14.40;78.50
6627;DHT22;3349;49.830;8.748;2023-06-01T05:33:22;14.40;77.70
6627;DHT22;3349;49.830;8.748;2023-06-01T05:35:48;14.40;77.10
6627;DHT22;3349;49.830;8.748;2023-06-01T05:38:15;14.50;76.50
6627;DHT22;3349;49.830;8.748;2023-06-01T05:40:42;14.60;76.00
6627;DHT22;3349;49.830;8.748;2023-06-01T05:43:10;14.60;74.80
6627;DHT22;3349;49.830;8.748;2023-06-01T05:45:37;14.70;74.30
6627;DHT22;3349;49.830;8.748;2023-06-01T05:48:04;14.80;73.90
6627;DHT22;3349;49.830;8.748;2023-06-01T05:50:31;14.90;74.50
6627;DHT22;3349;49.830;8.748;2023-06-01T05:53:01;14.90;74.50
6627;DHT22;3349;49.830;8.748;2023-06-01T05:55:27;15.00;75.10
6627;DHT22;3349;49.830;8.748;2023-06-01T05:57:54;15.10;73.40
6627;DHT22;3349;49.830;8.748;2023-06-01T06:00:22;15.10;72.20
6627;DHT22;3349;49.830;8.748;2023-06-01T06:02:49;15.20;71.30
6627;DHT22;3349;49.830;8.748;2023-06-01T06:05:15;15.20;71.40
6627;DHT22;3349;49.830;8.748;2023-06-01T06:07:42;15.30;70.80
6627;DHT22;3349;49.830;8.748;2023-06-01T06:10:11;15.40;70.50
6627;DHT22;3349;49.830;8.748;2023-06-01T06:12:38;15.50;70.60
6627;DHT22;3349;49.830;8.748;2023-06-01T06:15:06;15.50;70.10
6627;DHT22;3349;49.830;8.748;2023-06-01T06:17:34;15.60;68.60
6627;DHT22;3349;49.830;8.748;2023-06-01T06:20:00;15.70;67.70
6627;DHT22;3349;49.830;8.748;2023-06-01T06:22:31;15.80;65.60
6627;DHT22;3349;49.830;8.748;2023-06-01T06:24:59;15.90;66.20
6627;DHT22;3349;49.830;8.748;2023-06-01T06:27:25;16.00;65.50
6627;DHT22;3349;49.830;8.748;2023-06-01T06:29:52;16.00;66.00
6627;DHT22;3349;49.830;8.748;2023-06-01T06:32:19;16.10;66.50
6627;DHT22;3349;49.830;8.748;2023-06-01T06:34:47;16.20;66.20
6627;DHT22;3349;49.830;8.748;2023-06-01T06:37:14;16.30;65.90
6627;DHT22;3349;49.830;8.748;2023-06-01T06:39:41;16.50;65.90
6627;DHT22;3349;49.830;8.748;2023-06-01T06:42:08;16.50;65.50
6627;DHT22;3349;49.830;8.748;2023-06-01T06:44:34;16.60;65.80
6627;DHT22;3349;49.830;8.748;2023-06-01T06:47:01;16.70;64.40
6627;DHT22;3349;49.830;8.748;2023-06-01T06:49:28;16.80;62.50
6627;DHT22;3349;49.830;8.748;2023-06-01T06:51:56;16.90;62.60
6627;DHT22;3349;49.830;8.748;2023-06-01T06:54:23;17.00;62.70
6627;DHT22;3349;49.830;8.748;2023-06-01T06:56:50;17.10;62.90
6627;DHT22;3349;49.830;8.748;2023-06-01T06:59:17;17.20;61.90
6627;DHT22;3349;49.830;8.748;2023-06-01T07:01:43;17.30;60.20
6627;DHT22;3349;49.830;8.748;2023-06-01T07:04:10;17.40;60.50
6627;DHT22;3349;49.830;8.748;2023-06-01T07:06:37;17.60;59.60
6627;DHT22;3349;49.830;8.748;2023-06-01T07:09:05;17.60;58.30
6627;DHT22;3349;49.830;8.748;2023-06-01T07:11:34;17.70;58.80
6627;DHT22;3349;49.830;8.748;2023-06-01T07:14:01;17.90;59.10
6627;DHT22;3349;49.830;8.748;2023-06-01T07:16:28;18.00;58.40
6627;DHT22;3349;49.830;8.748;2023-06-01T07:18:55;18.10;58.50
6627;DHT22;3349;49.830;8.748;2023-06-01T07:21:22;18.30;57.20
6627;DHT22;3349;49.830;8.748;2023-06-01T07:23:48;18.40;56.90
6627;DHT22;3349;49.830;8.748;2023-06-01T07:26:17;18.50;57.30
6627;DHT22;3349;49.830;8.748;2023-06-01T07:28:43;18.70;56.90
6627;DHT22;3349;49.830;8.748;2023-06-01T07:31:10;18.90;55.90
6627;DHT22;3349;49.830;8.748;2023-06-01T07:33:37;18.90;54.20
6627;DHT22;3349;49.830;8.748;2023-06-01T07:36:05;19.00;54.50
6627;DHT22;3349;49.830;8.748;2023-06-01T07:38:32;19.30;54.70
6627;DHT22;3349;49.830;8.748;2023-06-01T07:40:59;19.50;52.30
6627;DHT22;3349;49.830;8.748;2023-06-01T07:43:27;19.60;52.40
6627;DHT22;3349;49.830;8.748;2023-06-01T07:45:54;19.70;52.30
6627;DHT22;3349;49.830;8.748;2023-06-01T07:48:22;19.90;51.80
6627;DHT22;3349;49.830;8.748;2023-06-01T07:50:49;20.10;51.00
6627;DHT22;3349;49.830;8.748;2023-06-01T07:53:17;20.40;50.60
6627;DHT22;3349;49.830;8.748;2023-06-01T07:55:44;20.60;49.10
6627;DHT22;3349;49.830;8.748;2023-06-01T07:58:14;20.90;49.00
6627;DHT22;3349;49.830;8.748;2023-06-01T08:00:42;21.00;47.10
6627;DHT22;3349;49.830;8.748;2023-06-01T08:03:09;21.40;47.40
6627;DHT22;3349;49.830;8.748;2023-06-01T08:05:36;21.60;46.60
6627;DHT22;3349;49.830;8.748;2023-06-01T08:08:03;22.10;45.40
6627;DHT22;3349;49.830;8.748;2023-06-01T08:10:30;22.60;44.50
6627;DHT22;3349;49.830;8.748;2023-06-01T08:12:57;23.00;43.50
6627;DHT22;3349;49.830;8.748;2023-06-01T08:15:25;23.70;41.70
6627;DHT22;3349;49.830;8.748;2023-06-01T08:17:55;23.80;38.50
6627;DHT22;3349;49.830;8.748;2023-06-01T08:20:22;24.90;37.30
6627;DHT22;3349;49.830;8.748;2023-06-01T08:22:51;25.60;35.10
6627;DHT22;3349;49.830;8.748;2023-06-01T08:25:18;26.40;35.00
6627;DHT22;3349;49.830;8.748;2023-06-01T08:27:46;27.00;32.90
6627;DHT22;3349;49.830;8.748;2023-06-01T08:30:13;28.00;32.10
6627;DHT22;3349;49.830;8.748;2023-06-01T08:32:39;28.70;29.70
6627;DHT22;3349;49.830;8.748;2023-06-01T08:35:08;29.10;28.70
6627;DHT22;3349;49.830;8.748;2023-06-01T08:37:35;29.50;27.60
6627;DHT22;3349;49.830;8.748;2023-06-01T08:40:03;29.10;27.80
6627;DHT22;3349;49.830;8.748;2023-06-01T08:42:38;30.20;26.70
6627;DHT22;3349;49.830;8.748;2023-06-01T08:45:06;30.60;26.10
6627;DHT22;3349;49.830;8.748;2023-06-01T08:47:33;30.90;25.40
6627;DHT22;3349;49.830;8.748;2023-06-01T08:50:02;31.50;24.70
6627;DHT22;3349;49.830;8.748;2023-06-01T08:52:31;31.60;23.60
6627;DHT22;3349;49.830;8.748;2023-06-01T08:55:01;31.50;23.70
6627;DHT22;3349;49.830;8.748;2023-06-01T08:57:29;32.50;23.60
6627;DHT22;3349;49.830;8.748;2023-06-01T08:59:56;31.70;23.60
6627;DHT22;3349;49.830;8.748;2023-06-01T09:02:23;31.40;24.60
6627;DHT22;3349;49.830;8.748;2023-06-01T09:04:50;31.80;23.70
6627;DHT22;3349;49.830;8.748;2023-06-01T09:07:18;30.80;23.80
6627;DHT22;3349;49.830;8.748;2023-06-01T09:09:46;31.30;23.90
6627;DHT22;3349;49.830;8.748;2023-06-01T09:12:21;31.40;23.50
6627;DHT22;3349;49.830;8.748;2023-06-01T09:14:49;32.40;23.60
6627;DHT22;3349;49.830;8.748;2023-06-01T09:17:22;31.20;23.40
6627;DHT22;3349;49.830;8.748;2023-06-01T09:19:52;31.50;23.50
6627;DHT22;3349;49.830;8.748;2023-06-01T09:22:20;32.50;22.20
6627;DHT22;3349;49.830;8.748;2023-06-01T09:24:56;33.20;21.00
6627;DHT22;3349;49.830;8.748;2023-06-01T09:27:24;33.70;21.00
6627;DHT22;3349;49.830;8.748;2023-06-01T09:29:53;33.90;21.30
6627;DHT22;3349;49.830;8.748;2023-06-01T09:32:20;33.80;20.90
6627;DHT22;3349;49.830;8.748;2023-06-01T09:34:47;34.50;20.30
6627;DHT22;3349;49.830;8.748;2023-06-01T09:37:14;34.80;20.20
6627;DHT22;3349;49.830;8.748;2023-06-01T09:39:42;33.80;19.20
6627;DHT22;3349;49.830;8.748;2023-06-01T09:42:10;32.00;21.00
6627;DHT22;3349;49.830;8.748;2023-06-01T09:44:38;31.80;22.50
6627;DHT22;3349;49.830;8.748;2023-06-01T09:47:06;31.60;22.20
6627;DHT22;3349;49.830;8.748;2023-06-01T09:49:36;32.70;21.90
6627;DHT22;3349;49.830;8.748;2023-06-01T09:52:12;33.50;21.30
6627;DHT22;3349;49.830;8.748;2023-06-01T09:54:41;32.90;21.10
6627;DHT22;3349;49.830;8.748;2023-06-01T09:57:10;33.00;21.00
6627;DHT22;3349;49.830;8.748;2023-06-01T09:59:39;33.30;20.80
6627;DHT22;3349;49.830;8.748;2023-06-01T10:02:08;33.00;20.60
6627;DHT22;3349;49.830;8.748;2023-06-01T10:04:39;33.10;19.90
6627;DHT22;3349;49.830;8.748;2023-06-01T10:07:08;34.20;19.40
6627;DHT22;3349;49.830;8.748;2023-06-01T10:09:38;34.50;18.00
6627;DHT22;3349;49.830;8.748;2023-06-01T10:12:06;35.40;18.10
6627;DHT22;3349;49.830;8.748;2023-06-01T10:14:36;35.80;18.30
6627;DHT22;3349;49.830;8.748;2023-06-01T10:17:04;36.40;17.80
6627;DHT22;3349;49.830;8.748;2023-06-01T10:19:31;36.10;17.40
6627;DHT22;3349;49.830;8.748;2023-06-01T10:21:58;36.80;17.80
6627;DHT22;3349;49.830;8.748;2023-06-01T10:24:26;36.40;17.20
6627;DHT22;3349;49.830;8.748;2023-06-01T10:26:59;36.40;17.00
6627;DHT22;3349;49.830;8.748;2023-06-01T10:29:31;36.20;16.20
6627;DHT22;3349;49.830;8.748;2023-06-01T10:32:00;34.60;17.90
6627;DHT22;3349;49.830;8.748;2023-06-01T10:34:47;35.00;17.90
6627;DHT22;3349;49.830;8.748;2023-06-01T10:37:17;36.20;17.40
6627;DHT22;3349;49.830;8.748;2023-06-01T10:39:44;36.60;17.60
6627;DHT22;3349;49.830;8.748;2023-06-01T10:42:39;37.10;17.20
6627;DHT22;3349;49.830;8.748;2023-06-01T10:45:07;37.00;17.10
6627;DHT22;3349;49.830;8.748;2023-06-01T10:47:45;36.70;16.40
6627;DHT22;3349;49.830;8.748;2023-06-01T10:50:19;36.70;16.60
6627;DHT22;3349;49.830;8.748;2023-06-01T10:52:46;36.40;16.20
6627;DHT22;3349;49.830;8.748;2023-06-01T10:55:28;36.40;17.00
6627;DHT22;3349;49.830;8.748;2023-06-01T10:58:18;35.90;18.10
6627;DHT22;3349;49.830;8.748;2023-06-01T11:00:46;35.30;16.70
6627;DHT22;3349;49.830;8.748;2023-06-01T11:03:14;34.00;17.40
6627;DHT22;3349;49.830;8.748;2023-06-01T11:05:44;34.90;17.80
6627;DHT22;3349;49.830;8.748;2023-06-01T11:08:53;33.90;18.30
6627;DHT22;3349;49.830;8.748;2023-06-01T11:11:20;35.00;17.90
6627;DHT22;3349;49.830;8.748;2023-06-01T11:14:08;35.80;17.80
6627;DHT22;3349;49.830;8.748;2023-06-01T11:16:35;36.00;17.00
6627;DHT22;3349;49.830;8.748;2023-06-01T11:19:05;36.30;17.30
6627;DHT22;3349;49.830;8.748;2023-06-01T11:21:34;36.80;16.80
6627;DHT22;3349;49.830;8.748;2023-06-01T11:24:06;37.00;16.50
6627;DHT22;3349;49.830;8.748;2023-06-01T11:26:36;37.00;17.20
6627;DHT22;3349;49.830;8.748;2023-06-01T11:29:08;37.10;16.60
6627;DHT22;3349;49.830;8.748;2023-06-01T11:31:38;36.10;16.60
6627;DHT22;3349;49.830;8.748;2023-06-01T11:34:07;34.40;17.60
6627;DHT22;3349;49.830;8.748;2023-06-01T11:36:42;35.20;18.00
6627;DHT22;3349;49.830;8.748;2023-06-01T11:39:20;35.90;17.30
6627;DHT22;3349;49.830;8.748;2023-06-01T11:41:48;35.90;17.20
6627;DHT22;3349;49.830;8.748;2023-06-01T11:44:15;36.20;16.90
6627;DHT22;3349;49.830;8.748;2023-06-01T11:46:56;36.40;17.00
6627;DHT22;3349;49.830;8.748;2023-06-01T11:49:25;36.20;16.30
6627;DHT22;3349;49.830;8.748;2023-06-01T11:51:54;36.30;16.30
6627;DHT22;3349;49.830;8.748;2023-06-01T11:54:23;36.60;15.90
6627;DHT22;3349;49.830;8.748;2023-06-01T11:56:51;36.80;15.80
6627;DHT22;3349;49.830;8.748;2023-06-01T11:59:18;37.00;15.90
6627;DHT22;3349;49.830;8.748;2023-06-01T12:01:48;36.50;16.20
6627;DHT22;3349;49.830;8.748;2023-06-01T12:04:16;36.80;16.30
6627;DHT22;3349;49.830;8.748;2023-06-01T12:06:45;36.20;16.00
6627;DHT22;3349;49.830;8.748;2023-06-01T12:09:12;35.80;16.90
6627;DHT22;3349;49.830;8.748;2023-06-01T12:11:40;35.40;17.00
6627;DHT22;3349;49.830;8.748;2023-06-01T12:14:10;35.60;17.20
6627;DHT22;3349;49.830;8.748;2023-06-01T12:16:57;35.30;17.30
6627;DHT22;3349;49.830;8.748;2023-06-01T12:19:24;35.70;17.40
6627;DHT22;3349;49.830;8.748;2023-06-01T12:21:54;34.90;17.10
6627;DHT22;3349;49.830;8.748;2023-06-01T12:24:29;34.90;17.80
6627;DHT22;3349;49.830;8.748;2023-06-01T12:26:57;34.60;17.70
6627;DHT22;3349;49.830;8.748;2023-06-01T12:29:34;35.20;17.20
6627;DHT22;3349;49.830;8.748;2023-06-01T12:32:01;35.60;16.30
6627;DHT22;3349;49.830;8.748;2023-06-01T12:34:28;34.70;17.20
6627;DHT22;3349;49.830;8.748;2023-06-01T12:36:56;35.20;16.70
6627;DHT22;3349;49.830;8.748;2023-06-01T12:39:32;35.00;16.40
6627;DHT22;3349;49.830;8.748;2023-06-01T12:42:02;35.40;16.00
6627;DHT22;3349;49.830;8.748;2023-06-01T12:44:29;35.40;16.20
6627;DHT22;3349;49.830;8.748;2023-06-01T12:46:56;35.90;15.40
6627;DHT22;3349;49.830;8.748;2023-06-01T12:49:24;35.30;15.60
6627;DHT22;3349;49.830;8.748;2023-06-01T12:51:51;34.20;16.70
6627;DHT22;3349;49.830;8.748;2023-06-01T12:54:19;34.10;17.40
6627;DHT22;3349;49.830;8.748;2023-06-01T12:56:47;35.20;16.80
6627;DHT22;3349;49.830;8.748;2023-06-01T12:59:14;35.50;16.20
6627;DHT22;3349;49.830;8.748;2023-06-01T13:01:41;35.00;16.00
6627;DHT22;3349;49.830;8.748;2023-06-01T13:04:08;35.50;16.30
6627;DHT22;3349;49.830;8.748;2023-06-01T13:06:34;35.30;15.70
6627;DHT22;3349;49.830;8.748;2023-06-01T13:09:02;35.50;14.60
6627;DHT22;3349;49.830;8.748;2023-06-01T13:11:30;35.90;14.90
6627;DHT22;3349;49.830;8.748;2023-06-01T13:13:57;35.50;14.80
6627;DHT22;3349;49.830;8.748;2023-06-01T13:16:24;35.70;15.40
6627;DHT22;3349;49.830;8.748;2023-06-01T13:18:51;35.50;16.00
6627;DHT22;3349;49.830;8.748;2023-06-01T13:21:17;34.00;17.00
6627;DHT22;3349;49.830;8.748;2023-06-01T13:23:44;33.50;17.20
6627;DHT22;3349;49.830;8.748;2023-06-01T13:26:11;32.20;18.70
6627;DHT22;3349;49.830;8.748;2023-06-01T13:28:41;31.30;18.80
6627;DHT22;3349;49.830;8.748;2023-06-01T13:31:08;30.60;19.40
6627;DHT22;3349;49.830;8.748;2023-06-01T13:33:35;30.30;19.50
6627;DHT22;3349;49.830;8.748;2023-06-01T13:36:03;29.90;20.10
6627;DHT22;3349;49.830;8.748;2023-06-01T13:38:30;29.50;20.20
6627;DHT22;3349;49.830;8.748;2023-06-01T13:40:57;29.10;19.80
6627;DHT22;3349;49.830;8.748;2023-06-01T13:43:24;28.60;19.60
6627;DHT22;3349;49.830;8.748;2023-06-01T13:45:53;28.50;20.20
6627;DHT22;3349;49.830;8.748;2023-06-01T13:48:19;28.50;19.70
6627;DHT22;3349;49.830;8.748;2023-06-01T13:50:46;28.50;18.90
6627;DHT22;3349;49.830;8.748;2023-06-01T13:53:13;28.50;19.60
6627;DHT22;3349;49.830;8.748;2023-06-01T13:55:40;28.60;19.00
6627;DHT22;3349;49.830;8.748;2023-06-01T13:58:07;28.70;18.50
6627;DHT22;3349;49.830;8.748;2023-06-01T14:00:33;28.60;18.00
6627;DHT22;3349;49.830;8.748;2023-06-01T14:03:02;28.80;17.80
6627;DHT22;3349;49.830;8.748;2023-06-01T14:05:29;28.90;17.40
6627;DHT22;3349;49.830;8.748;2023-06-01T14:07:56;29.10;17.50
6627;DHT22;3349;49.830;8.748;2023-06-01T14:10:22;29.40;17.60
6627;DHT22;3349;49.830;8.748;2023-06-01T14:12:49;29.50;17.00
6627;DHT22;3349;49.830;8.748;2023-06-01T14:15:16;30.20;16.80
6627;DHT22;3349;49.830;8.748;2023-06-01T14:17:43;30.40;15.90
6627;DHT22;3349;49.830;8.748;2023-06-01T14:20:11;31.00;15.90
6627;DHT22;3349;49.830;8.748;2023-06-01T14:22:38;31.70;16.20
6627;DHT22;3349;49.830;8.748;2023-06-01T14:25:05;31.80;14.70
6627;DHT22;3349;49.830;8.748;2023-06-01T14:27:32;32.00;14.00
6627;DHT22;3349;49.830;8.748;2023-06-01T14:29:59;32.20;15.20
6627;DHT22;3349;49.830;8.748;2023-06-01T14:32:28;32.40;14.60
6627;DHT22;3349;49.830;8.748;2023-06-01T14:34:55;32.50;15.00
6627;DHT22;3349;49.830;8.748;2023-06-01T14:37:23;31.70;15.20
6627;DHT22;3349;49.830;8.748;2023-06-01T14:39:50;31.50;14.80
6627;DHT22;3349;49.830;8.748;2023-06-01T14:42:17;31.70;14.60
6627;DHT22;3349;49.830;8.748;2023-06-01T14:44:43;31.50;15.10
6627;DHT22;3349;49.830;8.748;2023-06-01T14:47:10;31.80;14.80
6627;DHT22;3349;49.830;8.748;2023-06-01T14:49:37;32.20;14.20
6627;DHT22;3349;49.830;8.748;2023-06-01T14:52:04;32.00;15.50
6627;DHT22;3349;49.830;8.748;2023-06-01T14:54:32;31.20;15.90
6627;DHT22;3349;49.830;8.748;2023-06-01T14:56:59;31.10;16.20
6627;DHT22;3349;49.830;8.748;2023-06-01T14:59:26;31.10;16.90
6627;DHT22;3349;49.830;8.748;2023-06-01T15:01:53;31.00;17.70
6627;DHT22;3349;49.830;8.748;2023-06-01T15:04:20;30.80;17.70
6627;DHT22;3349;49.830;8.748;2023-06-01T15:06:46;30.30;17.30
6627;DHT22;3349;49.830;8.748;2023-06-01T15:09:13;30.00;17.90
6627;DHT22;3349;49.830;8.748;2023-06-01T15:11:41;29.90;18.10
6627;DHT22;3349;49.830;8.748;2023-06-01T15:14:08;29.60;17.90
6627;DHT22;3349;49.830;8.748;2023-06-01T15:16:35;29.60;18.20
6627;DHT22;3349;49.830;8.748;2023-06-01T15:19:02;29.70;17.90
6627;DHT22;3349;49.830;8.748;2023-06-01T15:21:28;29.60;17.20
6627;DHT22;3349;49.830;8.748;2023-06-01T15:23:56;29.70;17.00
6627;DHT22;3349;49.830;8.748;2023-06-01T15:26:23;29.70;17.70
6627;DHT22;3349;49.830;8.748;2023-06-01T15:28:51;29.70;16.30
6627;DHT22;3349;49.830;8.748;2023-06-01T15:31:18;29.60;16.40
6627;DHT22;3349;49.830;8.748;2023-06-01T15:33:45;29.70;16.70
6627;DHT22;3349;49.830;8.748;2023-06-01T15:36:12;29.70;16.70
6627;DHT22;3349;49.830;8.748;2023-06-01T15:38:40;29.80;16.30
6627;DHT22;3349;49.830;8.748;2023-06-01T15:41:07;29.90;17.10
6627;DHT22;3349;49.830;8.748;2023-06-01T15:43:34;29.70;17.50
6627;DHT22;3349;49.830;8.748;2023-06-01T15:46:02;29.70;18.00
6627;DHT22;3349;49.830;8.748;2023-06-01T15:48:29;29.80;18.10
6627;DHT22;3349;49.830;8.748;2023-06-01T15:50:56;29.70;17.50
6627;DHT22;3349;49.830;8.748;2023-06-01T15:53:23;29.60;17.60
6627;DHT22;3349;49.830;8.748;2023-06-01T15:55:49;29.40;18.60
6627;DHT22;3349;49.830;8.748;2023-06-01T15:58:16;29.40;18.60
6627;DHT22;3349;49.830;8.748;2023-06-01T16:00:43;29.40;19.00
6627;DHT22;3349;49.830;8.748;2023-06-01T16:03:12;29.30;19.00
6627;DHT22;3349;49.830;8.748;2023-06-01T16:05:39;29.20;19.50
6627;DHT22;3349;49.830;8.748;2023-06-01T16:08:05;29.00;20.00
6627;DHT22;3349;49.830;8.748;2023-06-01T16:10:33;29.20;19.70